Aviation Digital Data Service (ADDS)

Output produced by METARs form (2037 UTC 21 July 2017)
found at http://www.aviationweather.gov/adds/metars/
 
TAF TAPA 211700Z 2118/2218 07012KT 9999 SCT019 BKN038 
     PROB40 
     TEMPO 2122/2212 4000 SHRA FEW012CB BKN014 
     PROB30 
     TEMPO 2200/2206 TSRA